createdAt,value
2019-05-01T00:01:36.170Z,79.06
2019-05-01T00:04:30.530Z,79.46
2019-05-01T00:07:08.250Z,79.50
2019-05-01T00:09:41.495Z,79.20
2019-05-01T00:12:13.488Z,79.59
2019-05-01T00:14:45.427Z,80.01
2019-05-01T00:17:19.183Z,79.55
2019-05-01T00:19:51.123Z,78.27
2019-05-01T00:22:23.089Z,78.80
2019-05-01T00:24:55.034Z,78.99
2019-05-01T00:27:27.131Z,78.73
2019-05-01T00:29:59.070Z,79.46
2019-05-01T00:32:31.039Z,79.59
2019-05-01T00:35:03.147Z,79.38
2019-05-01T00:37:35.097Z,79.18
2019-05-01T00:40:07.159Z,79.40
2019-05-01T00:42:39.125Z,79.65
2019-05-01T00:45:11.105Z,78.64
2019-05-01T00:47:43.063Z,77.75
2019-05-01T00:50:15.045Z,77.45
2019-05-01T00:52:46.995Z,77.64
2019-05-01T00:55:37.678Z,77.61
2019-05-01T00:58:16.858Z,78.60
2019-05-01T01:01:02.707Z,79.37
2019-05-01T01:03:34.663Z,79.28
2019-05-01T01:06:07.004Z,79.29
2019-05-01T01:08:38.977Z,79.82
2019-05-01T01:11:10.959Z,80.01
2019-05-01T01:13:42.935Z,79.79
2019-05-01T01:16:14.885Z,79.87
2019-05-01T01:18:46.864Z,79.51
2019-05-01T01:21:18.786Z,79.45
2019-05-01T01:23:50.737Z,79.58
2019-05-01T01:26:22.679Z,79.38
2019-05-01T01:28:54.663Z,79.11
2019-05-01T01:31:26.705Z,78.93
2019-05-01T01:33:58.682Z,78.45
2019-05-01T01:36:30.632Z,78.62
2019-05-01T01:39:03.956Z,77.31
2019-05-01T01:41:36.051Z,77.65
2019-05-01T01:44:30.563Z,77.78
2019-05-01T01:47:02.597Z,77.94
2019-05-01T01:49:34.562Z,78.51
2019-05-01T01:52:06.547Z,78.84
2019-05-01T01:54:38.581Z,79.00
2019-05-01T01:57:10.592Z,79.25
2019-05-01T01:59:43.032Z,79.22
2019-05-01T02:02:37.082Z,79.56
2019-05-01T02:05:14.789Z,79.43
2019-05-01T02:07:46.736Z,79.84
2019-05-01T02:10:18.864Z,79.34
2019-05-01T02:12:50.770Z,79.39
2019-05-01T02:15:22.786Z,79.03
2019-05-01T02:17:54.700Z,78.96
2019-05-01T02:20:26.659Z,78.34
2019-05-01T02:22:58.621Z,78.73
2019-05-01T02:25:32.330Z,79.19
2019-05-01T02:28:32.700Z,79.06
2019-05-01T02:31:27.414Z,78.87
2019-05-01T02:33:47.633Z,78.67
2019-05-01T02:36:20.843Z,78.43
2019-05-01T02:38:54.347Z,78.43
2019-05-01T02:41:31.244Z,78.30
2019-05-01T02:44:11.669Z,78.18
2019-05-01T02:46:46.039Z,77.70
2019-05-01T02:49:24.789Z,78.08
2019-05-01T02:51:57.052Z,78.52
2019-05-01T02:54:28.992Z,78.54
2019-05-01T02:57:12.362Z,79.28
2019-05-01T02:59:46.309Z,79.30
2019-05-01T03:02:18.731Z,78.84
2019-05-01T03:04:51.714Z,79.09
2019-05-01T03:07:25.388Z,79.24
2019-05-01T03:09:57.333Z,79.87
2019-05-01T03:12:30.206Z,80.02
2019-05-01T03:15:04.655Z,79.46
2019-05-01T03:17:47.479Z,79.69
2019-05-01T03:20:39.327Z,79.96
2019-05-01T03:23:18.982Z,80.23
2019-05-01T03:25:50.952Z,80.45
2019-05-01T03:28:23.322Z,81.17
2019-05-01T03:30:55.477Z,81.07
2019-05-01T03:33:27.427Z,81.22
2019-05-01T03:35:59.956Z,80.82
2019-05-01T03:38:32.308Z,81.05
2019-05-01T03:41:04.654Z,80.69
2019-05-01T03:43:36.725Z,79.81
2019-05-01T03:46:08.905Z,79.51
2019-05-01T03:48:41.858Z,79.36
2019-05-01T03:51:13.787Z,79.16
2019-05-01T03:53:45.732Z,78.62
2019-05-01T03:56:17.964Z,78.71
2019-05-01T03:58:50.106Z,78.00
2019-05-01T04:01:54.086Z,77.95
2019-05-01T04:04:28.162Z,78.05
2019-05-01T04:07:00.099Z,78.22
2019-05-01T04:09:32.149Z,78.08
2019-05-01T04:12:04.625Z,78.12
2019-05-01T04:14:39.100Z,78.56
2019-05-01T04:17:26.406Z,78.87
2019-05-01T04:19:58.380Z,78.90
2019-05-01T04:22:30.354Z,78.26
2019-05-01T04:25:02.316Z,78.18
2019-05-01T04:27:36.967Z,77.87
2019-05-01T04:30:31.289Z,78.03
2019-05-01T04:33:06.702Z,78.47
2019-05-01T04:35:56.303Z,78.42
2019-05-01T04:38:28.271Z,78.58
2019-05-01T04:41:00.231Z,79.26
2019-05-01T04:43:32.386Z,79.41
2019-05-01T04:46:04.372Z,79.40
2019-05-01T04:48:36.454Z,78.98
2019-05-01T04:51:08.734Z,78.32
2019-05-01T04:53:41.210Z,78.10
2019-05-01T04:56:13.176Z,77.79
2019-05-01T04:58:45.410Z,76.16
2019-05-01T05:01:17.402Z,76.27
2019-05-01T05:03:49.344Z,75.40
2019-05-01T05:06:21.306Z,76.54
2019-05-01T05:08:53.227Z,77.12
2019-05-01T05:11:27.183Z,77.12
2019-05-01T05:14:09.105Z,77.07
2019-05-01T05:17:03.638Z,77.22
2019-05-01T05:19:35.683Z,76.97
2019-05-01T05:22:07.634Z,76.15
2019-05-01T05:24:39.869Z,74.79
2019-05-01T05:27:12.491Z,74.18
2019-05-01T05:29:44.785Z,72.84
2019-05-01T05:32:18.576Z,70.35
2019-05-01T05:34:52.628Z,70.22
2019-05-01T05:37:29.235Z,68.35
2019-05-01T05:40:01.303Z,67.13
2019-05-01T05:42:33.620Z,66.17
2019-05-01T05:45:06.150Z,65.87
2019-05-01T05:47:38.216Z,65.93
2019-05-01T05:50:12.053Z,64.95
2019-05-01T05:52:50.872Z,63.57
2019-05-01T05:55:35.654Z,63.65
2019-05-01T05:58:26.312Z,62.51
2019-05-01T06:01:07.494Z,61.87
2019-05-01T06:03:57.907Z,61.57
2019-05-01T06:06:50.796Z,61.38
2019-05-01T06:09:32.852Z,60.16
2019-05-01T06:12:32.467Z,59.59
2019-05-01T06:15:30.631Z,57.72
2019-05-01T06:18:34.717Z,57.39
2019-05-01T06:21:16.134Z,56.43
2019-05-01T06:23:57.735Z,55.98
2019-05-01T06:26:37.425Z,55.36
2019-05-01T06:29:05.842Z,53.71
2019-05-01T06:31:38.122Z,52.32
2019-05-01T06:34:10.082Z,51.79
2019-05-01T06:36:44.127Z,51.07
2019-05-01T06:39:15.909Z,50.71
2019-05-01T06:41:47.882Z,50.34
2019-05-01T06:44:44.221Z,50.04
2019-05-01T06:47:30.459Z,49.63
2019-05-01T06:50:10.373Z,48.86
2019-05-01T06:52:42.343Z,48.30
2019-05-01T06:55:14.416Z,48.15
2019-05-01T06:57:46.647Z,47.26
2019-05-01T07:00:18.941Z,46.82
2019-05-01T07:02:51.953Z,46.52
2019-05-01T07:05:24.039Z,46.37
2019-05-01T07:07:56.015Z,45.86
2019-05-01T07:10:31.748Z,45.96
2019-05-01T07:13:04.987Z,46.40
2019-05-01T07:15:37.444Z,45.99
2019-05-01T07:18:11.462Z,45.13
2019-05-01T07:20:51.290Z,43.64
2019-05-01T07:23:21.764Z,42.80
2019-05-01T07:25:53.837Z,42.22
2019-05-01T07:28:28.911Z,42.23
2019-05-01T07:31:05.281Z,40.96
2019-05-01T07:33:37.498Z,41.24
2019-05-01T07:36:15.446Z,40.11
2019-05-01T07:38:44.429Z,40.09
2019-05-01T07:41:16.439Z,39.70
2019-05-01T07:44:14.036Z,39.51
2019-05-01T07:47:05.606Z,38.44
2019-05-01T07:49:56.676Z,38.15
2019-05-01T07:52:28.673Z,38.35
2019-05-01T07:55:00.647Z,39.73
2019-05-01T07:57:34.139Z,40.43
2019-05-01T08:00:12.637Z,40.93
2019-05-01T08:02:44.653Z,41.25
2019-05-01T08:05:16.590Z,40.92
2019-05-01T08:07:48.544Z,40.33
2019-05-01T08:10:21.059Z,41.22
2019-05-01T08:12:55.387Z,40.79
2019-05-01T08:15:32.392Z,41.10
2019-05-01T08:18:27.927Z,40.65
2019-05-01T08:21:26.038Z,40.80
2019-05-01T08:23:58.705Z,41.23
2019-05-01T08:26:30.673Z,41.02
2019-05-01T08:29:42.035Z,40.64
2019-05-01T08:32:24.790Z,40.03
2019-05-01T08:35:02.163Z,40.10
2019-05-01T08:37:34.250Z,40.06
2019-05-01T08:40:06.449Z,39.45
2019-05-01T08:42:42.573Z,39.92
2019-05-01T08:45:47.004Z,39.94
2019-05-01T08:48:41.909Z,38.87
2019-05-01T08:51:13.884Z,39.50
2019-05-01T08:53:45.854Z,39.02
2019-05-01T08:56:21.983Z,37.92
2019-05-01T08:58:51.758Z,36.34
2019-05-01T09:01:23.725Z,34.61
2019-05-01T09:03:55.845Z,35.88
2019-05-01T09:06:34.443Z,36.72
2019-05-01T09:09:02.972Z,36.43
2019-05-01T09:11:36.218Z,36.88
2019-05-01T09:14:09.233Z,37.03
2019-05-01T09:16:41.249Z,35.78
2019-05-01T09:19:13.275Z,36.07
2019-05-01T09:21:45.252Z,34.49
2019-05-01T09:24:17.242Z,34.13
2019-05-01T09:27:03.702Z,33.50
2019-05-01T09:29:42.244Z,33.67
2019-05-01T09:32:14.218Z,32.19
2019-05-01T09:34:46.256Z,30.22
2019-05-01T09:37:18.232Z,31.16
2019-05-01T09:39:50.197Z,31.57
2019-05-01T09:42:23.687Z,32.75
2019-05-01T09:44:56.318Z,31.46
2019-05-01T09:47:28.281Z,32.14
2019-05-01T09:50:00.274Z,32.67
2019-05-01T09:52:43.121Z,32.45
2019-05-01T09:55:23.203Z,33.76
2019-05-01T09:57:52.609Z,32.94
2019-05-01T10:00:28.623Z,32.22
2019-05-01T10:03:00.641Z,33.09
2019-05-01T10:05:32.629Z,33.01
2019-05-01T10:08:05.502Z,32.09
2019-05-01T10:10:37.609Z,33.05
2019-05-01T10:13:09.676Z,31.90
2019-05-01T10:15:41.708Z,32.83
2019-05-01T10:18:13.791Z,32.17
2019-05-01T10:20:45.745Z,31.49
2019-05-01T10:23:17.680Z,30.33
2019-05-01T10:25:53.039Z,29.97
2019-05-01T10:28:49.961Z,29.50
2019-05-01T10:31:42.850Z,29.91
2019-05-01T10:34:23.379Z,29.35
2019-05-01T10:36:55.856Z,28.68
2019-05-01T10:39:30.190Z,28.83
2019-05-01T10:42:02.003Z,29.61
2019-05-01T10:44:33.941Z,30.73
2019-05-01T10:47:05.939Z,32.13
2019-05-01T10:49:37.919Z,32.84
2019-05-01T10:52:14.289Z,31.79
2019-05-01T10:54:46.412Z,32.13
2019-05-01T10:57:17.621Z,32.89
2019-05-01T10:59:49.550Z,32.63
2019-05-01T11:02:21.561Z,33.18
2019-05-01T11:04:53.536Z,33.26
2019-05-01T11:07:25.535Z,33.20
2019-05-01T11:09:57.473Z,33.41
2019-05-01T11:12:29.435Z,32.94
2019-05-01T11:15:01.394Z,32.51
2019-05-01T11:17:33.392Z,33.09
2019-05-01T11:20:05.811Z,33.94
2019-05-01T11:22:37.807Z,33.41
2019-05-01T11:25:10.189Z,32.63
2019-05-01T11:27:42.172Z,31.40
2019-05-01T11:30:14.407Z,31.69
2019-05-01T11:33:01.827Z,31.91
2019-05-01T11:36:09.760Z,30.32
2019-05-01T11:38:45.954Z,32.41
2019-05-01T11:41:22.020Z,32.22
2019-05-01T11:43:53.962Z,30.67
2019-05-01T11:46:26.378Z,29.85
2019-05-01T11:48:58.465Z,30.12
2019-05-01T11:51:30.445Z,30.12
2019-05-01T11:54:02.545Z,30.11
2019-05-01T11:56:34.507Z,30.48
2019-05-01T11:59:06.490Z,30.50
2019-05-01T12:01:38.492Z,30.72
2019-05-01T12:04:10.456Z,31.58
2019-05-01T12:06:42.384Z,31.96
2019-05-01T12:09:14.394Z,31.73
2019-05-01T12:11:48.273Z,30.81
2019-05-01T12:14:20.291Z,30.59
2019-05-01T12:17:14.643Z,32.10
2019-05-01T12:19:46.776Z,30.24
2019-05-01T12:22:18.751Z,31.49
2019-05-01T12:24:50.758Z,31.02
2019-05-01T12:27:22.767Z,32.24
2019-05-01T12:29:54.749Z,30.21
2019-05-01T12:32:26.776Z,31.17
2019-05-01T12:34:58.786Z,30.50
2019-05-01T12:37:35.755Z,30.00
2019-05-01T12:40:09.022Z,30.65
2019-05-01T12:42:41.086Z,29.99
2019-05-01T12:45:14.044Z,27.95
2019-05-01T12:47:51.089Z,28.17
2019-05-01T12:50:23.100Z,28.22
2019-05-01T12:53:23.586Z,28.53
2019-05-01T12:56:15.191Z,29.30
2019-05-01T12:58:49.287Z,29.51
2019-05-01T13:01:21.290Z,30.03
2019-05-01T13:03:53.293Z,29.53
2019-05-01T13:06:25.283Z,30.79
2019-05-01T13:08:57.264Z,31.18
2019-05-01T13:11:29.454Z,30.25
2019-05-01T13:14:01.442Z,30.25
2019-05-01T13:16:33.481Z,31.79
2019-05-01T13:19:05.465Z,30.52
2019-05-01T13:21:37.443Z,32.41
2019-05-01T13:24:09.413Z,31.90
2019-05-01T13:26:53.878Z,31.75
2019-05-01T13:29:48.458Z,29.84
2019-05-01T13:32:55.064Z,30.12
2019-05-01T13:35:27.022Z,30.77
2019-05-01T13:37:59.017Z,30.45
2019-05-01T13:40:31.177Z,31.09
2019-05-01T13:43:03.181Z,29.68
2019-05-01T13:45:35.243Z,28.82
2019-05-01T13:48:07.319Z,29.13
2019-05-01T13:50:39.250Z,29.52
2019-05-01T13:53:11.327Z,30.66
2019-05-01T13:55:43.281Z,30.89
2019-05-01T13:58:15.336Z,29.50
2019-05-01T14:00:47.296Z,29.32
2019-05-01T14:03:19.327Z,29.26
2019-05-01T14:05:51.346Z,29.15
2019-05-01T14:08:23.355Z,30.24
2019-05-01T14:10:55.338Z,31.50
2019-05-01T14:13:27.344Z,31.83
2019-05-01T14:15:59.333Z,30.97
2019-05-01T14:18:31.301Z,29.81
2019-05-01T14:21:37.398Z,30.76
2019-05-01T14:24:28.448Z,30.72
2019-05-01T14:27:00.438Z,31.38
2019-05-01T14:29:32.410Z,31.62
2019-05-01T14:32:04.383Z,31.57
2019-05-01T14:34:36.383Z,31.48
2019-05-01T14:37:08.400Z,32.13
2019-05-01T14:39:40.378Z,31.37
2019-05-01T14:42:12.354Z,30.72
2019-05-01T14:44:44.327Z,31.51
2019-05-01T14:47:16.427Z,31.77
2019-05-01T14:49:48.485Z,31.33
2019-05-01T14:52:20.427Z,31.62
2019-05-01T14:54:52.401Z,31.67
2019-05-01T14:57:24.361Z,31.85
2019-05-01T14:59:56.355Z,31.57
2019-05-01T15:02:28.368Z,28.87
2019-05-01T15:05:00.366Z,28.51
2019-05-01T15:07:42.775Z,29.45
2019-05-01T15:10:06.335Z,29.33
2019-05-01T15:12:39.497Z,30.21
2019-05-01T15:15:32.381Z,30.02
2019-05-01T15:18:10.411Z,29.61
2019-05-01T15:20:42.466Z,30.91
2019-05-01T15:23:14.412Z,30.90
2019-05-01T15:25:46.408Z,31.52
2019-05-01T15:28:18.406Z,30.97
2019-05-01T15:30:51.118Z,30.94
2019-05-01T15:33:23.072Z,30.91
2019-05-01T15:35:55.084Z,30.93
2019-05-01T15:38:27.091Z,30.55
2019-05-01T15:41:08.393Z,30.60
2019-05-01T15:43:50.933Z,31.29
2019-05-01T15:46:22.948Z,30.52
2019-05-01T15:48:54.916Z,30.34
2019-05-01T15:51:26.949Z,30.27
2019-05-01T15:53:58.915Z,30.67
2019-05-01T15:56:30.908Z,30.22
2019-05-01T15:59:02.864Z,30.12
2019-05-01T16:01:34.856Z,29.83
2019-05-01T16:04:06.830Z,29.74
2019-05-01T16:06:38.805Z,29.61
2019-05-01T16:09:10.901Z,30.54
2019-05-01T16:12:11.742Z,30.89
2019-05-01T16:14:48.579Z,30.69
2019-05-01T16:17:20.597Z,31.10
2019-05-01T16:19:52.621Z,30.98
2019-05-01T16:22:24.641Z,31.45
2019-05-01T16:24:56.634Z,30.35
2019-05-01T16:27:28.649Z,31.16
2019-05-01T16:30:00.623Z,31.32
2019-05-01T16:32:32.690Z,31.46
2019-05-01T16:35:04.818Z,31.44
2019-05-01T16:37:36.905Z,31.19
2019-05-01T16:40:21.658Z,30.52
2019-05-01T16:42:53.696Z,30.96
2019-05-01T16:45:25.703Z,30.53
2019-05-01T16:47:57.824Z,31.36
2019-05-01T16:50:29.765Z,30.68
2019-05-01T16:53:01.841Z,30.68
2019-05-01T16:55:33.848Z,30.72
2019-05-01T16:58:07.877Z,30.44
2019-05-01T17:00:57.278Z,31.00
2019-05-01T17:03:48.927Z,31.29
2019-05-01T17:06:49.451Z,31.08
2019-05-01T17:09:36.628Z,31.61
2019-05-01T17:12:10.916Z,32.45
2019-05-01T17:14:42.570Z,33.25
2019-05-01T17:17:18.060Z,33.13
2019-05-01T17:19:50.122Z,33.58
2019-05-01T17:22:22.105Z,32.53
2019-05-01T17:24:54.145Z,32.12
2019-05-01T17:27:26.133Z,32.49
2019-05-01T17:29:58.197Z,32.75
2019-05-01T17:32:31.009Z,32.72
2019-05-01T17:35:06.628Z,32.51
2019-05-01T17:37:37.324Z,32.01
2019-05-01T17:40:09.705Z,32.47
2019-05-01T17:42:41.743Z,32.74
2019-05-01T17:45:13.897Z,32.45
2019-05-01T17:47:45.892Z,33.18
2019-05-01T17:50:21.167Z,32.94
2019-05-01T17:52:51.899Z,33.82
2019-05-01T17:55:24.001Z,34.42
2019-05-01T17:57:56.032Z,35.26
2019-05-01T18:00:47.656Z,36.77
2019-05-01T18:03:38.216Z,38.01
2019-05-01T18:06:27.974Z,40.10
2019-05-01T18:09:03.105Z,41.39
2019-05-01T18:11:33.944Z,42.26
2019-05-01T18:14:06.098Z,41.87
2019-05-01T18:16:38.129Z,42.14
2019-05-01T18:19:10.362Z,42.82
2019-05-01T18:21:46.861Z,43.17
2019-05-01T18:24:44.789Z,43.81
2019-05-01T18:27:35.071Z,44.38
2019-05-01T18:30:09.532Z,43.94
2019-05-01T18:32:47.487Z,44.47
2019-05-01T18:35:16.261Z,45.40
2019-05-01T18:38:06.475Z,45.43
2019-05-01T18:40:45.799Z,45.29
2019-05-01T18:43:17.916Z,45.45
2019-05-01T18:45:54.538Z,45.86
2019-05-01T18:48:26.608Z,46.48
2019-05-01T18:50:58.675Z,47.79
2019-05-01T18:53:30.810Z,48.57
2019-05-01T18:56:05.628Z,49.00
2019-05-01T18:58:36.963Z,49.01
2019-05-01T19:01:10.738Z,48.91
2019-05-01T19:03:44.196Z,49.52
2019-05-01T19:06:16.505Z,50.31
2019-05-01T19:08:48.592Z,51.92
2019-05-01T19:11:20.857Z,52.63
2019-05-01T19:13:52.912Z,53.23
2019-05-01T19:16:25.058Z,53.56
2019-05-01T19:18:57.212Z,53.64
2019-05-01T19:21:29.820Z,53.25
2019-05-01T19:24:02.786Z,53.81
2019-05-01T19:26:38.205Z,53.62
2019-05-01T19:29:09.821Z,51.73
2019-05-01T19:31:42.015Z,50.94
2019-05-01T19:34:14.177Z,51.62
2019-05-01T19:36:46.426Z,52.25
2019-05-01T19:39:18.545Z,52.26
2019-05-01T19:41:51.400Z,53.64
2019-05-01T19:44:24.676Z,54.59
2019-05-01T19:46:56.740Z,54.58
2019-05-01T19:49:29.795Z,54.28
2019-05-01T19:52:02.933Z,54.39
2019-05-01T19:54:35.036Z,55.20
2019-05-01T19:57:07.023Z,55.32
2019-05-01T19:59:39.154Z,55.21
2019-05-01T20:02:12.471Z,55.20
2019-05-01T20:04:45.274Z,55.07
2019-05-01T20:07:21.432Z,55.46
2019-05-01T20:09:57.082Z,56.02
2019-05-01T20:12:29.550Z,56.41
2019-05-01T20:15:00.621Z,56.79
2019-05-01T20:17:32.653Z,57.09
2019-05-01T20:20:04.845Z,57.49
2019-05-01T20:22:36.951Z,58.14
2019-05-01T20:25:08.987Z,58.35
2019-05-01T20:27:42.834Z,58.78
2019-05-01T20:30:15.190Z,59.05
2019-05-01T20:32:47.190Z,58.95
2019-05-01T20:35:19.259Z,58.29
2019-05-01T20:37:51.277Z,59.18
2019-05-01T20:40:23.358Z,59.13
2019-05-01T20:42:55.393Z,59.44
2019-05-01T20:45:27.479Z,59.30
2019-05-01T20:47:59.483Z,58.71
2019-05-01T20:50:31.583Z,58.94
2019-05-01T20:53:03.850Z,59.09
2019-05-01T20:55:35.871Z,59.62
2019-05-01T20:58:21.079Z,57.93
2019-05-01T21:00:57.708Z,58.77
2019-05-01T21:03:30.465Z,59.07
2019-05-01T21:06:23.753Z,59.47
2019-05-01T21:09:08.331Z,60.01
2019-05-01T21:11:47.259Z,60.07
2019-05-01T21:14:22.616Z,60.07
2019-05-01T21:16:51.032Z,60.71
2019-05-01T21:19:23.839Z,61.36
2019-05-01T21:21:56.966Z,61.81
2019-05-01T21:24:28.960Z,61.90
2019-05-01T21:27:00.938Z,62.68
2019-05-01T21:29:34.308Z,62.58
2019-05-01T21:32:06.452Z,63.05
2019-05-01T21:34:38.470Z,63.45
2019-05-01T21:37:10.465Z,63.59
2019-05-01T21:39:43.642Z,63.91
2019-05-01T21:42:16.415Z,64.05
2019-05-01T21:44:48.350Z,64.31
2019-05-01T21:47:20.370Z,64.43
2019-05-01T21:49:52.975Z,64.65
2019-05-01T21:52:26.801Z,64.74
2019-05-01T21:54:58.993Z,64.73
2019-05-01T21:57:33.143Z,64.72
2019-05-01T22:00:05.688Z,65.14
2019-05-01T22:02:41.650Z,65.12
2019-05-01T22:05:12.184Z,64.66
2019-05-01T22:07:44.172Z,64.91
2019-05-01T22:10:16.174Z,65.18
2019-05-01T22:12:50.806Z,65.42
2019-05-01T22:15:29.400Z,65.66
2019-05-01T22:18:19.634Z,65.89
2019-05-01T22:21:04.377Z,66.17
2019-05-01T22:23:55.990Z,66.52
2019-05-01T22:26:29.778Z,66.79
2019-05-01T22:29:03.666Z,66.81
2019-05-01T22:31:57.472Z,67.08
2019-05-01T22:34:41.600Z,67.22
2019-05-01T22:37:13.576Z,67.23
2019-05-01T22:39:49.343Z,67.33
2019-05-01T22:42:21.355Z,67.64
2019-05-01T22:44:53.366Z,67.68
2019-05-01T22:47:25.388Z,67.77
2019-05-01T22:49:57.375Z,67.82
2019-05-01T22:52:29.365Z,68.31
2019-05-01T22:55:01.342Z,68.43
2019-05-01T22:57:33.430Z,68.34
2019-05-01T23:00:06.470Z,68.90
2019-05-01T23:02:40.091Z,68.94
2019-05-01T23:05:12.287Z,69.11
2019-05-01T23:07:44.277Z,69.63
2019-05-01T23:10:16.252Z,69.52
2019-05-01T23:12:48.208Z,69.53
2019-05-01T23:15:22.856Z,69.65
2019-05-01T23:17:54.797Z,69.55
2019-05-01T23:20:26.862Z,69.80
2019-05-01T23:22:58.797Z,70.16
2019-05-01T23:25:30.794Z,70.05
2019-05-01T23:28:04.173Z,69.99
2019-05-01T23:30:36.697Z,70.07
2019-05-01T23:33:08.662Z,70.09
2019-05-01T23:35:40.651Z,70.01
2019-05-01T23:38:12.631Z,70.43
2019-05-01T23:40:46.201Z,70.76
2019-05-01T23:43:18.614Z,70.96
2019-05-01T23:45:50.622Z,70.57
2019-05-01T23:48:22.621Z,70.87
2019-05-01T23:50:54.600Z,70.78
2019-05-01T23:53:26.665Z,71.42
2019-05-01T23:56:00.070Z,71.55
2019-05-01T23:58:32.501Z,71.59
